createdAt,value
2022-10-06T00:03:56.818Z,46.80
2022-10-06T00:09:00.086Z,46.90
2022-10-06T00:14:03.363Z,46.90
2022-10-06T00:19:08.403Z,47.10
2022-10-06T00:24:12.092Z,47.20
2022-10-06T00:29:15.416Z,47.10
2022-10-06T00:34:20.415Z,47.20
2022-10-06T00:39:23.721Z,47.40
2022-10-06T00:44:27.317Z,47.30
2022-10-06T00:49:36.816Z,47.40
2022-10-06T00:54:40.256Z,47.70
2022-10-06T00:59:43.615Z,47.50
2022-10-06T01:04:50.571Z,47.60
2022-10-06T01:09:54.576Z,47.80
2022-10-06T01:14:58.198Z,47.60
2022-10-06T01:20:10.420Z,47.60
2022-10-06T01:25:16.979Z,47.90
2022-10-06T01:30:25.010Z,47.90
2022-10-06T01:35:28.288Z,47.90
2022-10-06T01:40:33.126Z,47.80
2022-10-06T01:45:38.089Z,47.90
2022-10-06T01:50:42.297Z,47.80
2022-10-06T01:55:47.603Z,47.90
2022-10-06T02:00:55.022Z,48.10
2022-10-06T02:05:58.539Z,48.00
2022-10-06T02:11:09.161Z,48.00
2022-10-06T02:16:17.275Z,48.40
2022-10-06T02:21:22.772Z,48.10
2022-10-06T02:26:27.432Z,48.10
2022-10-06T02:31:31.544Z,48.30
2022-10-06T02:36:35.489Z,48.90
2022-10-06T02:41:40.765Z,48.30
2022-10-06T02:46:44.239Z,48.60
2022-10-06T02:51:47.757Z,48.50
2022-10-06T02:56:52.364Z,48.60
2022-10-06T03:01:55.942Z,48.70
2022-10-06T03:07:00.000Z,48.60
2022-10-06T03:12:09.548Z,48.70
2022-10-06T03:17:15.996Z,48.90
2022-10-06T03:22:27.165Z,48.80
2022-10-06T03:27:34.230Z,48.80
2022-10-06T03:32:40.064Z,49.00
2022-10-06T03:37:45.784Z,48.90
2022-10-06T03:42:51.432Z,48.80
2022-10-06T03:47:56.680Z,49.00
2022-10-06T03:53:00.081Z,49.00
2022-10-06T03:58:05.046Z,48.90
2022-10-06T04:03:08.389Z,49.00
2022-10-06T04:08:11.968Z,49.00
2022-10-06T04:13:18.336Z,49.00
2022-10-06T04:18:22.124Z,49.30
2022-10-06T04:23:25.567Z,49.10
2022-10-06T04:28:30.834Z,49.20
2022-10-06T04:33:34.596Z,49.30
2022-10-06T04:38:39.027Z,49.20
2022-10-06T04:43:43.929Z,49.30
2022-10-06T04:48:47.604Z,49.40
2022-10-06T04:53:51.281Z,49.40
2022-10-06T04:58:58.412Z,49.40
2022-10-06T05:04:03.477Z,49.50
2022-10-06T05:09:10.867Z,49.90
2022-10-06T05:14:18.369Z,49.80
2022-10-06T05:19:24.513Z,49.80
2022-10-06T05:24:28.868Z,49.70
2022-10-06T05:29:35.143Z,49.60
2022-10-06T05:34:40.396Z,49.80
2022-10-06T05:39:43.702Z,49.70
2022-10-06T05:44:48.500Z,49.70
2022-10-06T05:49:52.656Z,49.90
2022-10-06T05:54:55.961Z,49.90
2022-10-06T06:00:00.682Z,50.00
2022-10-06T06:05:05.334Z,50.20
2022-10-06T06:10:10.215Z,50.20
2022-10-06T06:15:32.508Z,50.30
2022-10-06T06:20:38.329Z,50.60
2022-10-06T06:25:44.551Z,50.50
2022-10-06T06:30:49.712Z,50.60
2022-10-06T06:35:53.183Z,50.80
2022-10-06T06:40:57.003Z,50.80
2022-10-06T06:46:05.611Z,50.90
2022-10-06T06:51:24.321Z,51.20
2022-10-06T06:56:27.968Z,50.90
2022-10-06T07:01:32.904Z,50.90
2022-10-06T07:06:40.091Z,51.10
2022-10-06T07:11:44.708Z,51.10
2022-10-06T07:17:11.840Z,51.10
2022-10-06T07:22:39.557Z,51.20
2022-10-06T07:27:52.117Z,51.30
2022-10-06T07:33:01.961Z,51.40
2022-10-06T07:38:08.731Z,51.40
2022-10-06T07:43:19.759Z,51.40
2022-10-06T07:48:26.800Z,51.40
2022-10-06T07:53:35.812Z,51.60
2022-10-06T07:58:45.485Z,52.20
2022-10-06T08:03:50.747Z,51.90
2022-10-06T08:08:55.215Z,51.70
2022-10-06T08:13:58.894Z,51.70
2022-10-06T08:19:03.575Z,51.60
2022-10-06T08:24:07.265Z,51.30
2022-10-06T08:29:11.583Z,51.20
2022-10-06T08:34:16.220Z,51.00
2022-10-06T08:39:19.531Z,50.80
2022-10-06T08:44:31.672Z,50.70
2022-10-06T08:49:39.746Z,50.20
2022-10-06T08:54:52.121Z,49.90
2022-10-06T08:59:55.689Z,49.60
2022-10-06T09:05:03.810Z,49.60
2022-10-06T09:10:27.391Z,49.10
2022-10-06T09:15:36.300Z,48.30
2022-10-06T09:20:45.049Z,48.40
2022-10-06T09:25:48.476Z,48.20
2022-10-06T09:30:55.446Z,48.30
2022-10-06T09:36:09.934Z,47.90
2022-10-06T09:41:14.488Z,46.70
2022-10-06T09:46:22.872Z,47.20
2022-10-06T09:51:29.141Z,46.40
2022-10-06T09:56:36.322Z,46.70
2022-10-06T10:01:39.753Z,46.30
2022-10-06T10:06:44.479Z,46.00
2022-10-06T10:12:05.204Z,44.90
2022-10-06T10:17:11.536Z,45.00
2022-10-06T10:22:23.738Z,44.80
2022-10-06T10:27:36.882Z,43.50
2022-10-06T10:32:53.149Z,43.40
2022-10-06T10:38:04.903Z,43.00
2022-10-06T10:43:17.032Z,42.20
2022-10-06T10:48:25.619Z,41.80
2022-10-06T10:53:40.245Z,41.30
2022-10-06T10:58:48.900Z,40.50
2022-10-06T11:03:56.844Z,41.00
2022-10-06T11:09:06.777Z,40.90
2022-10-06T11:14:25.194Z,39.80
2022-10-06T11:19:38.628Z,39.30
2022-10-06T11:24:51.315Z,38.60
2022-10-06T11:30:04.864Z,38.30
2022-10-06T11:35:20.820Z,38.00
2022-10-06T11:40:47.883Z,37.50
2022-10-06T11:46:01.196Z,37.40
2022-10-06T11:51:30.481Z,37.20
2022-10-06T11:56:44.128Z,37.10
2022-10-06T12:01:59.483Z,36.80
2022-10-06T12:07:06.584Z,37.30
2022-10-06T12:13:01.798Z,37.40
2022-10-06T12:18:21.746Z,36.90
2022-10-06T12:23:40.267Z,36.70
2022-10-06T12:28:51.306Z,36.60
2022-10-06T12:33:54.672Z,36.70
2022-10-06T12:39:21.915Z,36.90
2022-10-06T12:44:28.882Z,36.20
2022-10-06T12:49:44.273Z,36.80
2022-10-06T12:55:00.416Z,36.70
2022-10-06T13:05:27.375Z,36.50
2022-10-06T13:10:32.484Z,37.10
2022-10-06T13:15:41.726Z,37.10
2022-10-06T13:20:49.598Z,37.00
2022-10-06T13:25:58.022Z,36.90
2022-10-06T13:31:04.366Z,37.00
2022-10-06T13:36:09.374Z,37.00
2022-10-06T13:41:29.596Z,37.10
2022-10-06T13:46:41.307Z,36.90
2022-10-06T13:51:48.752Z,37.10
2022-10-06T13:56:52.454Z,37.30
2022-10-06T14:01:57.743Z,37.50
2022-10-06T14:07:03.185Z,37.40
2022-10-06T14:12:13.142Z,37.50
2022-10-06T14:17:23.932Z,37.60
2022-10-06T14:22:34.343Z,37.40
2022-10-06T14:27:37.665Z,37.60
2022-10-06T14:32:42.356Z,37.80
2022-10-06T14:37:45.982Z,37.80
2022-10-06T14:42:49.238Z,37.90
2022-10-06T14:47:53.885Z,38.00
2022-10-06T14:52:58.705Z,38.00
2022-10-06T14:58:03.579Z,38.00
2022-10-06T15:03:08.302Z,38.10
2022-10-06T15:08:11.895Z,38.00
2022-10-06T15:13:15.175Z,38.10
2022-10-06T15:18:19.817Z,38.10
2022-10-06T15:23:23.083Z,38.00
2022-10-06T15:28:44.119Z,38.00
2022-10-06T15:33:53.009Z,38.60
2022-10-06T15:38:57.136Z,37.90
2022-10-06T15:44:00.477Z,38.00
2022-10-06T15:49:07.014Z,38.10
2022-10-06T15:54:10.963Z,38.10
2022-10-06T15:59:14.356Z,38.20
2022-10-06T16:04:29.366Z,38.30
2022-10-06T16:09:37.016Z,38.20
2022-10-06T16:14:42.705Z,38.30
2022-10-06T16:19:47.816Z,38.30
2022-10-06T16:24:51.386Z,40.00
2022-10-06T16:29:54.719Z,40.20
2022-10-06T16:34:59.324Z,40.30
2022-10-06T16:40:02.911Z,40.70
2022-10-06T16:45:07.115Z,40.60
2022-10-06T16:50:11.849Z,40.70
2022-10-06T16:55:15.231Z,40.70
2022-10-06T17:00:18.635Z,40.50
2022-10-06T17:05:23.342Z,40.50
2022-10-06T17:10:26.564Z,40.60
2022-10-06T17:15:33.388Z,40.60
2022-10-06T17:20:38.991Z,40.80
2022-10-06T17:25:42.772Z,40.80
2022-10-06T17:30:53.172Z,39.80
2022-10-06T17:35:57.969Z,39.40
2022-10-06T17:41:07.006Z,39.30
2022-10-06T17:46:13.530Z,39.40
2022-10-06T17:51:20.158Z,39.40
2022-10-06T17:56:25.422Z,39.50
2022-10-06T18:01:31.396Z,39.50
2022-10-06T18:06:37.570Z,39.80
2022-10-06T18:11:43.762Z,39.90
2022-10-06T18:16:53.637Z,40.00
2022-10-06T18:22:02.824Z,40.60
2022-10-06T18:27:08.225Z,40.60
2022-10-06T18:33:37.265Z,40.70
2022-10-06T18:37:38.372Z,40.80
2022-10-06T18:42:42.529Z,41.00
2022-10-06T18:48:03.540Z,41.00
2022-10-06T18:53:09.188Z,41.20
2022-10-06T18:58:13.436Z,41.40
2022-10-06T19:03:18.919Z,41.50
2022-10-06T19:08:25.597Z,41.50
2022-10-06T19:13:29.327Z,41.90
2022-10-06T19:18:39.064Z,41.80
2022-10-06T19:23:44.942Z,42.20
2022-10-06T19:28:51.186Z,42.20
2022-10-06T19:33:59.676Z,42.10
2022-10-06T19:39:10.828Z,42.30
2022-10-06T19:44:14.536Z,42.50
2022-10-06T19:49:19.073Z,42.60
2022-10-06T19:54:24.026Z,42.70
2022-10-06T19:59:27.717Z,42.90
2022-10-06T20:04:31.080Z,43.00
2022-10-06T20:09:35.862Z,43.00
2022-10-06T20:14:39.335Z,43.20
2022-10-06T20:19:42.955Z,43.30
2022-10-06T20:24:49.125Z,43.30
2022-10-06T20:29:52.574Z,43.70
2022-10-06T20:34:55.829Z,43.80
2022-10-06T20:40:17.647Z,43.80
2022-10-06T20:45:21.030Z,43.90
2022-10-06T20:50:24.264Z,43.90
2022-10-06T20:55:28.902Z,44.00
2022-10-06T21:00:32.303Z,44.20
2022-10-06T21:05:35.655Z,44.20
2022-10-06T21:10:40.389Z,44.30
2022-10-06T21:15:46.846Z,44.50
2022-10-06T21:20:57.705Z,45.00
2022-10-06T21:26:03.556Z,45.20
2022-10-06T21:31:13.157Z,45.00
2022-10-06T21:36:18.491Z,44.90
2022-10-06T21:41:31.679Z,45.00
2022-10-06T21:46:37.038Z,45.40
2022-10-06T21:51:41.788Z,45.30
2022-10-06T21:56:46.939Z,45.30
2022-10-06T22:01:50.980Z,45.50
2022-10-06T22:06:54.517Z,45.40
2022-10-06T22:11:59.419Z,45.50
2022-10-06T22:17:04.984Z,45.80
2022-10-06T22:22:08.452Z,45.70
2022-10-06T22:27:13.132Z,45.90
2022-10-06T22:32:16.546Z,46.00
2022-10-06T22:37:19.921Z,46.00
2022-10-06T22:42:24.722Z,46.10
2022-10-06T22:47:28.042Z,46.30
2022-10-06T22:52:31.337Z,46.20
2022-10-06T22:57:36.072Z,46.30
2022-10-06T23:02:39.366Z,46.50
2022-10-06T23:07:42.865Z,46.40
2022-10-06T23:12:48.584Z,46.50
2022-10-06T23:17:52.134Z,46.70
2022-10-06T23:22:56.423Z,46.70
2022-10-06T23:28:01.127Z,46.80
2022-10-06T23:33:04.992Z,47.00
2022-10-06T23:38:10.533Z,46.90
2022-10-06T23:43:15.438Z,47.10
2022-10-06T23:48:18.753Z,47.30
2022-10-06T23:53:22.062Z,47.20
2022-10-06T23:58:27.172Z,47.40
